Aviation Digital Data Service (ADDS)

Output produced by TAFs form (2230 UTC 06 May 2016)
found at http://aviationweather.gov/adds/tafs/
 
KLND 062147Z 0622/0718 27012KT P6SM -RA BKN050 
     FM062300 28008KT 4SM -RA SCT010 BKN020 
     FM070700 29006KT 3SM -RA BKN010